sensor_id;sensor_type;location;lat;lon;timestamp;temperature;humidity
40600;DHT22;26309;50.924;4.754;2023-04-01T00:00:25;10.40;99.90
40600;DHT22;26309;50.924;4.754;2023-04-01T00:02:51;10.40;99.90
40600;DHT22;26309;50.924;4.754;2023-04-01T00:05:17;10.40;99.90
40600;DHT22;26309;50.924;4.754;2023-04-01T00:07:43;10.40;99.90
40600;DHT22;26309;50.924;4.754;2023-04-01T00:10:11;10.30;99.90
40600;DHT22;26309;50.924;4.754;2023-04-01T00:12:38;10.40;99.90
40600;DHT22;26309;50.924;4.754;2023-04-01T00:15:06;10.50;99.90
40600;DHT22;26309;50.924;4.754;2023-04-01T00:17:33;10.50;99.90
40600;DHT22;26309;50.924;4.754;2023-04-01T00:19:59;10.50;99.90
40600;DHT22;26309;50.924;4.754;2023-04-01T00:22:26;10.50;99.90
40600;DHT22;26309;50.924;4.754;2023-04-01T00:24:53;10.50;99.90
40600;DHT22;26309;50.924;4.754;2023-04-01T00:27:19;10.50;99.90
40600;DHT22;26309;50.924;4.754;2023-04-01T00:29:46;10.50;99.90
40600;DHT22;26309;50.924;4.754;2023-04-01T00:32:13;10.50;99.90
40600;DHT22;26309;50.924;4.754;2023-04-01T00:34:39;10.50;99.90
40600;DHT22;26309;50.924;4.754;2023-04-01T00:37:06;10.60;99.90
40600;DHT22;26309;50.924;4.754;2023-04-01T00:39:33;10.60;99.90
40600;DHT22;26309;50.924;4.754;2023-04-01T00:42:00;10.60;99.90
40600;DHT22;26309;50.924;4.754;2023-04-01T00:44:29;10.60;99.90
40600;DHT22;26309;50.924;4.754;2023-04-01T00:46:55;10.60;99.90
40600;DHT22;26309;50.924;4.754;2023-04-01T00:49:29;10.60;99.90
40600;DHT22;26309;50.924;4.754;2023-04-01T00:51:59;10.60;99.90
40600;DHT22;26309;50.924;4.754;2023-04-01T00:54:27;10.60;99.90
40600;DHT22;26309;50.924;4.754;2023-04-01T00:57:11;10.60;99.90
40600;DHT22;26309;50.924;4.754;2023-04-01T00:59:46;10.60;99.90
40600;DHT22;26309;50.924;4.754;2023-04-01T01:02:14;10.50;99.90
40600;DHT22;26309;50.924;4.754;2023-04-01T01:04:40;10.40;99.90
40600;DHT22;26309;50.924;4.754;2023-04-01T01:12:44;10.50;99.90
40600;DHT22;26309;50.924;4.754;2023-04-01T01:34:47;10.40;99.90
40600;DHT22;26309;50.924;4.754;2023-04-01T01:37:17;10.40;99.90
40600;DHT22;26309;50.924;4.754;2023-04-01T01:39:48;10.50;99.90
40600;DHT22;26309;50.924;4.754;2023-04-01T01:42:16;10.40;99.90
40600;DHT22;26309;50.924;4.754;2023-04-01T01:44:47;10.50;99.90
40600;DHT22;26309;50.924;4.754;2023-04-01T01:47:15;10.60;99.90
40600;DHT22;26309;50.924;4.754;2023-04-01T01:49:43;10.60;99.90
40600;DHT22;26309;50.924;4.754;2023-04-01T01:52:10;10.60;99.90
40600;DHT22;26309;50.924;4.754;2023-04-01T01:54:46;10.60;99.90
40600;DHT22;26309;50.924;4.754;2023-04-01T01:57:13;10.40;99.90
40600;DHT22;26309;50.924;4.754;2023-04-01T01:59:41;10.50;99.90
40600;DHT22;26309;50.924;4.754;2023-04-01T02:02:10;10.50;99.90
40600;DHT22;26309;50.924;4.754;2023-04-01T02:04:40;10.50;99.90
40600;DHT22;26309;50.924;4.754;2023-04-01T02:07:22;10.40;99.90
40600;DHT22;26309;50.924;4.754;2023-04-01T02:09:50;10.40;99.90
40600;DHT22;26309;50.924;4.754;2023-04-01T02:12:20;10.40;99.90
40600;DHT22;26309;50.924;4.754;2023-04-01T02:15:00;10.50;99.90
40600;DHT22;26309;50.924;4.754;2023-04-01T02:17:30;10.30;99.90
40600;DHT22;26309;50.924;4.754;2023-04-01T02:20:06;10.30;99.90
40600;DHT22;26309;50.924;4.754;2023-04-01T02:22:39;10.30;99.90
40600;DHT22;26309;50.924;4.754;2023-04-01T02:25:19;10.30;99.90
40600;DHT22;26309;50.924;4.754;2023-04-01T02:27:46;10.30;99.90
40600;DHT22;26309;50.924;4.754;2023-04-01T02:30:17;10.30;99.90
40600;DHT22;26309;50.924;4.754;2023-04-01T02:32:43;10.20;99.90
40600;DHT22;26309;50.924;4.754;2023-04-01T02:35:12;10.20;99.90
40600;DHT22;26309;50.924;4.754;2023-04-01T02:37:39;10.20;99.90
40600;DHT22;26309;50.924;4.754;2023-04-01T02:40:10;10.20;99.90
40600;DHT22;26309;50.924;4.754;2023-04-01T02:42:36;10.00;99.90
40600;DHT22;26309;50.924;4.754;2023-04-01T02:45:03;10.00;99.90
40600;DHT22;26309;50.924;4.754;2023-04-01T02:47:30;10.10;99.90
40600;DHT22;26309;50.924;4.754;2023-04-01T02:49:56;10.10;99.90
40600;DHT22;26309;50.924;4.754;2023-04-01T02:52:24;10.20;99.90
40600;DHT22;26309;50.924;4.754;2023-04-01T02:54:50;10.10;99.90
40600;DHT22;26309;50.924;4.754;2023-04-01T02:57:16;10.00;99.90
40600;DHT22;26309;50.924;4.754;2023-04-01T02:59:42;10.00;99.90
40600;DHT22;26309;50.924;4.754;2023-04-01T03:02:08;10.00;99.90
40600;DHT22;26309;50.924;4.754;2023-04-01T03:04:34;10.10;99.90
40600;DHT22;26309;50.924;4.754;2023-04-01T03:07:00;10.10;99.90
40600;DHT22;26309;50.924;4.754;2023-04-01T03:09:26;10.10;99.90
40600;DHT22;26309;50.924;4.754;2023-04-01T03:11:52;10.00;99.90
40600;DHT22;26309;50.924;4.754;2023-04-01T03:14:19;9.90;99.90
40600;DHT22;26309;50.924;4.754;2023-04-01T03:16:45;10.00;99.90
40600;DHT22;26309;50.924;4.754;2023-04-01T03:19:11;10.00;99.90
40600;DHT22;26309;50.924;4.754;2023-04-01T03:21:37;10.10;99.90
40600;DHT22;26309;50.924;4.754;2023-04-01T03:24:03;10.20;99.90
40600;DHT22;26309;50.924;4.754;2023-04-01T03:26:29;10.10;99.90
40600;DHT22;26309;50.924;4.754;2023-04-01T03:28:55;10.20;99.90
40600;DHT22;26309;50.924;4.754;2023-04-01T03:31:22;10.20;99.90
40600;DHT22;26309;50.924;4.754;2023-04-01T03:33:48;10.20;99.90
40600;DHT22;26309;50.924;4.754;2023-04-01T03:36:13;10.10;99.90
40600;DHT22;26309;50.924;4.754;2023-04-01T03:38:41;10.00;99.90
40600;DHT22;26309;50.924;4.754;2023-04-01T03:41:11;10.10;99.90
40600;DHT22;26309;50.924;4.754;2023-04-01T03:43:37;10.00;99.90
40600;DHT22;26309;50.924;4.754;2023-04-01T03:46:03;9.80;99.90
40600;DHT22;26309;50.924;4.754;2023-04-01T03:48:28;9.80;99.90
40600;DHT22;26309;50.924;4.754;2023-04-01T03:50:54;9.90;99.90
40600;DHT22;26309;50.924;4.754;2023-04-01T03:53:20;9.80;99.90
40600;DHT22;26309;50.924;4.754;2023-04-01T03:55:46;9.80;99.90
40600;DHT22;26309;50.924;4.754;2023-04-01T03:58:13;9.90;99.90
40600;DHT22;26309;50.924;4.754;2023-04-01T04:00:39;9.90;99.90
40600;DHT22;26309;50.924;4.754;2023-04-01T04:03:06;9.90;99.90
40600;DHT22;26309;50.924;4.754;2023-04-01T04:05:31;9.90;99.90
40600;DHT22;26309;50.924;4.754;2023-04-01T04:07:58;10.00;99.90
40600;DHT22;26309;50.924;4.754;2023-04-01T04:10:24;10.00;99.90
40600;DHT22;26309;50.924;4.754;2023-04-01T04:12:51;10.00;99.90
40600;DHT22;26309;50.924;4.754;2023-04-01T04:15:19;10.00;99.90
40600;DHT22;26309;50.924;4.754;2023-04-01T04:17:45;9.90;99.90
40600;DHT22;26309;50.924;4.754;2023-04-01T04:20:11;9.90;99.90
40600;DHT22;26309;50.924;4.754;2023-04-01T04:22:38;9.90;99.90
40600;DHT22;26309;50.924;4.754;2023-04-01T04:25:04;10.00;99.90
40600;DHT22;26309;50.924;4.754;2023-04-01T04:27:30;9.90;99.90
40600;DHT22;26309;50.924;4.754;2023-04-01T04:29:56;9.90;99.90
40600;DHT22;26309;50.924;4.754;2023-04-01T04:32:23;10.00;99.90
40600;DHT22;26309;50.924;4.754;2023-04-01T04:34:49;9.90;99.90
40600;DHT22;26309;50.924;4.754;2023-04-01T04:37:14;9.90;99.90
40600;DHT22;26309;50.924;4.754;2023-04-01T04:39:40;9.90;99.90
40600;DHT22;26309;50.924;4.754;2023-04-01T04:42:06;10.00;99.90
40600;DHT22;26309;50.924;4.754;2023-04-01T04:44:32;10.20;99.90
40600;DHT22;26309;50.924;4.754;2023-04-01T04:46:58;10.00;99.90
40600;DHT22;26309;50.924;4.754;2023-04-01T04:49:23;9.90;99.90
40600;DHT22;26309;50.924;4.754;2023-04-01T04:51:49;10.00;99.90
40600;DHT22;26309;50.924;4.754;2023-04-01T04:54:15;10.10;99.90
40600;DHT22;26309;50.924;4.754;2023-04-01T04:56:41;10.00;99.90
40600;DHT22;26309;50.924;4.754;2023-04-01T04:59:07;10.00;99.90
40600;DHT22;26309;50.924;4.754;2023-04-01T05:01:33;9.90;99.90
40600;DHT22;26309;50.924;4.754;2023-04-01T05:03:59;9.80;99.90
40600;DHT22;26309;50.924;4.754;2023-04-01T05:06:26;9.90;99.90
40600;DHT22;26309;50.924;4.754;2023-04-01T05:08:55;10.00;99.90
40600;DHT22;26309;50.924;4.754;2023-04-01T05:11:21;10.00;99.90
40600;DHT22;26309;50.924;4.754;2023-04-01T05:13:47;10.00;99.90
40600;DHT22;26309;50.924;4.754;2023-04-01T05:16:17;9.90;99.90
40600;DHT22;26309;50.924;4.754;2023-04-01T05:18:43;10.00;99.90
40600;DHT22;26309;50.924;4.754;2023-04-01T05:21:11;9.90;99.90
40600;DHT22;26309;50.924;4.754;2023-04-01T05:23:39;9.90;99.90
40600;DHT22;26309;50.924;4.754;2023-04-01T05:26:06;9.90;99.90
40600;DHT22;26309;50.924;4.754;2023-04-01T05:28:32;9.80;99.90
40600;DHT22;26309;50.924;4.754;2023-04-01T05:31:00;9.80;99.90
40600;DHT22;26309;50.924;4.754;2023-04-01T05:33:27;9.70;99.90
40600;DHT22;26309;50.924;4.754;2023-04-01T05:35:54;9.70;99.90
40600;DHT22;26309;50.924;4.754;2023-04-01T05:38:20;9.80;99.90
40600;DHT22;26309;50.924;4.754;2023-04-01T05:40:46;9.80;99.90
40600;DHT22;26309;50.924;4.754;2023-04-01T05:43:12;9.80;99.90
40600;DHT22;26309;50.924;4.754;2023-04-01T05:45:38;10.00;99.90
40600;DHT22;26309;50.924;4.754;2023-04-01T05:48:05;10.00;99.90
40600;DHT22;26309;50.924;4.754;2023-04-01T05:50:31;10.10;99.90
40600;DHT22;26309;50.924;4.754;2023-04-01T05:52:57;10.00;99.90
40600;DHT22;26309;50.924;4.754;2023-04-01T05:55:23;10.00;99.90
40600;DHT22;26309;50.924;4.754;2023-04-01T05:57:49;9.90;99.90
40600;DHT22;26309;50.924;4.754;2023-04-01T06:00:16;9.80;99.90
40600;DHT22;26309;50.924;4.754;2023-04-01T06:02:42;9.70;99.90
40600;DHT22;26309;50.924;4.754;2023-04-01T06:07:41;9.70;99.90
40600;DHT22;26309;50.924;4.754;2023-04-01T06:10:39;9.80;99.90
40600;DHT22;26309;50.924;4.754;2023-04-01T06:13:17;9.80;99.90
40600;DHT22;26309;50.924;4.754;2023-04-01T06:15:53;9.70;99.90
40600;DHT22;26309;50.924;4.754;2023-04-01T06:21:07;9.70;99.90
40600;DHT22;26309;50.924;4.754;2023-04-01T06:36:00;9.90;99.90
40600;DHT22;26309;50.924;4.754;2023-04-01T06:39:04;10.00;99.90
40600;DHT22;26309;50.924;4.754;2023-04-01T06:42:10;10.00;99.90
40600;DHT22;26309;50.924;4.754;2023-04-01T06:44:43;9.90;99.90
40600;DHT22;26309;50.924;4.754;2023-04-01T06:47:38;9.70;99.90
40600;DHT22;26309;50.924;4.754;2023-04-01T06:50:34;9.60;99.90
40600;DHT22;26309;50.924;4.754;2023-04-01T06:53:30;9.60;99.90
40600;DHT22;26309;50.924;4.754;2023-04-01T06:56:04;9.70;99.90
40600;DHT22;26309;50.924;4.754;2023-04-01T06:58:48;9.80;99.90
40600;DHT22;26309;50.924;4.754;2023-04-01T07:01:40;10.00;99.90
40600;DHT22;26309;50.924;4.754;2023-04-01T07:04:32;9.80;99.90
40600;DHT22;26309;50.924;4.754;2023-04-01T07:07:04;9.70;99.90
40600;DHT22;26309;50.924;4.754;2023-04-01T07:09:38;9.60;99.90
40600;DHT22;26309;50.924;4.754;2023-04-01T07:12:19;9.60;99.90
40600;DHT22;26309;50.924;4.754;2023-04-01T07:14:48;9.70;99.90
40600;DHT22;26309;50.924;4.754;2023-04-01T07:17:46;9.70;99.90
40600;DHT22;26309;50.924;4.754;2023-04-01T07:20:31;9.80;99.90
40600;DHT22;26309;50.924;4.754;2023-04-01T07:23:08;9.70;99.90
40600;DHT22;26309;50.924;4.754;2023-04-01T07:25:50;9.70;99.90
40600;DHT22;26309;50.924;4.754;2023-04-01T07:28:17;9.70;99.90
40600;DHT22;26309;50.924;4.754;2023-04-01T07:31:05;9.80;99.90
40600;DHT22;26309;50.924;4.754;2023-04-01T07:42:19;9.60;99.90
40600;DHT22;26309;50.924;4.754;2023-04-01T07:45:04;9.60;99.90
40600;DHT22;26309;50.924;4.754;2023-04-01T07:50:31;9.70;99.90
40600;DHT22;26309;50.924;4.754;2023-04-01T07:53:09;9.80;99.90
40600;DHT22;26309;50.924;4.754;2023-04-01T08:01:30;9.70;99.90
40600;DHT22;26309;50.924;4.754;2023-04-01T08:04:23;9.70;99.90
40600;DHT22;26309;50.924;4.754;2023-04-01T08:12:24;10.40;99.90
40600;DHT22;26309;50.924;4.754;2023-04-01T08:18:15;10.00;99.90
40600;DHT22;26309;50.924;4.754;2023-04-01T08:20:48;10.00;99.90
40600;DHT22;26309;50.924;4.754;2023-04-01T08:23:21;10.10;99.90
40600;DHT22;26309;50.924;4.754;2023-04-01T08:26:13;10.10;99.90
40600;DHT22;26309;50.924;4.754;2023-04-01T08:31:43;10.10;99.90
40600;DHT22;26309;50.924;4.754;2023-04-01T08:34:34;10.20;99.90
40600;DHT22;26309;50.924;4.754;2023-04-01T08:37:05;10.20;99.90
40600;DHT22;26309;50.924;4.754;2023-04-01T08:39:45;10.20;99.90
40600;DHT22;26309;50.924;4.754;2023-04-01T08:45:41;10.30;99.90
40600;DHT22;26309;50.924;4.754;2023-04-01T08:53:41;10.40;99.90
40600;DHT22;26309;50.924;4.754;2023-04-01T09:07:43;10.10;99.90
40600;DHT22;26309;50.924;4.754;2023-04-01T09:10:21;10.30;99.90
40600;DHT22;26309;50.924;4.754;2023-04-01T09:32:14;10.50;99.90
40600;DHT22;26309;50.924;4.754;2023-04-01T09:46:05;10.50;99.90
40600;DHT22;26309;50.924;4.754;2023-04-01T09:54:13;10.50;99.90
40600;DHT22;26309;50.924;4.754;2023-04-01T10:02:54;11.00;99.90
40600;DHT22;26309;50.924;4.754;2023-04-01T10:52:23;11.50;99.90
40600;DHT22;26309;50.924;4.754;2023-04-01T11:29:41;11.20;99.90
40600;DHT22;26309;50.924;4.754;2023-04-01T11:35:27;11.10;99.90
40600;DHT22;26309;50.924;4.754;2023-04-01T11:41:02;11.30;99.90
40600;DHT22;26309;50.924;4.754;2023-04-01T11:57:43;11.20;99.90
40600;DHT22;26309;50.924;4.754;2023-04-01T12:11:33;11.40;99.90
40600;DHT22;26309;50.924;4.754;2023-04-01T12:28:41;11.40;99.90
40600;DHT22;26309;50.924;4.754;2023-04-01T12:31:25;11.50;99.90
40600;DHT22;26309;50.924;4.754;2023-04-01T12:34:21;11.40;99.90
40600;DHT22;26309;50.924;4.754;2023-04-01T12:39:57;11.60;99.90
40600;DHT22;26309;50.924;4.754;2023-04-01T12:53:33;11.30;99.90
40600;DHT22;26309;50.924;4.754;2023-04-01T12:56:14;11.00;99.90
40600;DHT22;26309;50.924;4.754;2023-04-01T12:58:56;10.90;99.90
40600;DHT22;26309;50.924;4.754;2023-04-01T13:01:54;11.00;99.90
40600;DHT22;26309;50.924;4.754;2023-04-01T13:07:44;11.00;99.90
40600;DHT22;26309;50.924;4.754;2023-04-01T13:29:20;10.90;99.90
40600;DHT22;26309;50.924;4.754;2023-04-01T13:37:54;11.10;99.90
40600;DHT22;26309;50.924;4.754;2023-04-01T13:44:02;11.00;99.90
40600;DHT22;26309;50.924;4.754;2023-04-01T13:49:11;10.80;99.90
40600;DHT22;26309;50.924;4.754;2023-04-01T13:54:51;10.80;99.90
40600;DHT22;26309;50.924;4.754;2023-04-01T14:14:37;11.10;99.90
40600;DHT22;26309;50.924;4.754;2023-04-01T14:25:44;10.80;99.90
40600;DHT22;26309;50.924;4.754;2023-04-01T14:28:18;10.70;99.90
40600;DHT22;26309;50.924;4.754;2023-04-01T14:39:43;11.30;99.90
40600;DHT22;26309;50.924;4.754;2023-04-01T14:47:43;11.20;99.90
40600;DHT22;26309;50.924;4.754;2023-04-01T14:50:24;11.30;99.90
40600;DHT22;26309;50.924;4.754;2023-04-01T14:52:57;11.60;99.90
40600;DHT22;26309;50.924;4.754;2023-04-01T14:55:34;11.50;99.90
40600;DHT22;26309;50.924;4.754;2023-04-01T14:58:13;11.40;99.90
40600;DHT22;26309;50.924;4.754;2023-04-01T15:14:51;11.10;99.90
40600;DHT22;26309;50.924;4.754;2023-04-01T15:22:41;11.20;99.90
40600;DHT22;26309;50.924;4.754;2023-04-01T15:25:29;11.10;99.90
40600;DHT22;26309;50.924;4.754;2023-04-01T15:55:46;10.90;99.90
40600;DHT22;26309;50.924;4.754;2023-04-01T15:58:29;11.10;99.90
40600;DHT22;26309;50.924;4.754;2023-04-01T16:12:11;10.70;99.90
40600;DHT22;26309;50.924;4.754;2023-04-01T16:15:17;10.80;99.90
40600;DHT22;26309;50.924;4.754;2023-04-01T16:20:51;10.70;99.90
40600;DHT22;26309;50.924;4.754;2023-04-01T16:23:36;10.80;99.90
40600;DHT22;26309;50.924;4.754;2023-04-01T16:27:02;10.80;99.90
40600;DHT22;26309;50.924;4.754;2023-04-01T16:30:00;10.60;99.90
40600;DHT22;26309;50.924;4.754;2023-04-01T16:32:54;10.40;99.90
40600;DHT22;26309;50.924;4.754;2023-04-01T16:41:04;10.50;99.90
40600;DHT22;26309;50.924;4.754;2023-04-01T16:46:34;10.10;99.90
40600;DHT22;26309;50.924;4.754;2023-04-01T16:59:35;10.00;99.90
40600;DHT22;26309;50.924;4.754;2023-04-01T17:04:47;9.80;99.90
40600;DHT22;26309;50.924;4.754;2023-04-01T17:07:32;9.80;99.90
40600;DHT22;26309;50.924;4.754;2023-04-01T17:16:06;9.90;99.90
40600;DHT22;26309;50.924;4.754;2023-04-01T17:30:13;10.10;99.90
40600;DHT22;26309;50.924;4.754;2023-04-01T17:39:07;9.60;99.90
40600;DHT22;26309;50.924;4.754;2023-04-01T17:45:28;9.70;99.90
40600;DHT22;26309;50.924;4.754;2023-04-01T17:51:17;9.80;99.90
40600;DHT22;26309;50.924;4.754;2023-04-01T17:54:25;9.70;99.90
40600;DHT22;26309;50.924;4.754;2023-04-01T17:59:38;9.80;99.90
40600;DHT22;26309;50.924;4.754;2023-04-01T18:08:49;9.70;99.90
40600;DHT22;26309;50.924;4.754;2023-04-01T18:16:58;9.70;99.90
40600;DHT22;26309;50.924;4.754;2023-04-01T18:22:47;9.60;99.90
40600;DHT22;26309;50.924;4.754;2023-04-01T18:25:32;9.80;99.90
40600;DHT22;26309;50.924;4.754;2023-04-01T18:28:22;9.70;99.90
40600;DHT22;26309;50.924;4.754;2023-04-01T18:31:03;9.70;99.90
40600;DHT22;26309;50.924;4.754;2023-04-01T18:36:26;9.80;99.90
40600;DHT22;26309;50.924;4.754;2023-04-01T18:39:32;9.70;99.90
40600;DHT22;26309;50.924;4.754;2023-04-01T18:42:07;9.70;99.90
40600;DHT22;26309;50.924;4.754;2023-04-01T18:44:56;9.80;99.90
40600;DHT22;26309;50.924;4.754;2023-04-01T18:52:51;9.80;99.90
40600;DHT22;26309;50.924;4.754;2023-04-01T18:57:53;9.70;99.90
40600;DHT22;26309;50.924;4.754;2023-04-01T19:00:27;9.70;99.90
40600;DHT22;26309;50.924;4.754;2023-04-01T19:03:11;9.70;99.90
40600;DHT22;26309;50.924;4.754;2023-04-01T19:05:44;9.60;99.90
40600;DHT22;26309;50.924;4.754;2023-04-01T19:08:38;9.60;99.90
40600;DHT22;26309;50.924;4.754;2023-04-01T19:16:37;9.60;99.90
40600;DHT22;26309;50.924;4.754;2023-04-01T19:22:30;9.70;99.90
40600;DHT22;26309;50.924;4.754;2023-04-01T19:27:49;9.50;99.90
40600;DHT22;26309;50.924;4.754;2023-04-01T19:30:48;9.50;99.90
40600;DHT22;26309;50.924;4.754;2023-04-01T19:38:39;9.50;99.90
40600;DHT22;26309;50.924;4.754;2023-04-01T19:44:01;9.30;99.90
40600;DHT22;26309;50.924;4.754;2023-04-01T19:46:55;9.50;99.90
40600;DHT22;26309;50.924;4.754;2023-04-01T19:52:39;9.60;99.90
40600;DHT22;26309;50.924;4.754;2023-04-01T20:00:37;9.30;99.90
40600;DHT22;26309;50.924;4.754;2023-04-01T20:12:17;9.70;99.90
40600;DHT22;26309;50.924;4.754;2023-04-01T20:14:48;9.70;99.90
40600;DHT22;26309;50.924;4.754;2023-04-01T20:25:17;9.40;99.90
40600;DHT22;26309;50.924;4.754;2023-04-01T20:27:51;9.30;99.90
40600;DHT22;26309;50.924;4.754;2023-04-01T20:41:23;9.50;99.90
40600;DHT22;26309;50.924;4.754;2023-04-01T20:44:20;9.50;99.90
40600;DHT22;26309;50.924;4.754;2023-04-01T20:57:12;9.60;99.90
40600;DHT22;26309;50.924;4.754;2023-04-01T21:02:56;9.70;99.90
40600;DHT22;26309;50.924;4.754;2023-04-01T21:08:56;10.00;99.90
40600;DHT22;26309;50.924;4.754;2023-04-01T21:11:37;10.00;99.90
40600;DHT22;26309;50.924;4.754;2023-04-01T21:17:17;10.20;99.90
40600;DHT22;26309;50.924;4.754;2023-04-01T21:25:27;10.40;99.90
40600;DHT22;26309;50.924;4.754;2023-04-01T21:31:36;10.30;99.90
40600;DHT22;26309;50.924;4.754;2023-04-01T21:42:41;10.30;99.90
40600;DHT22;26309;50.924;4.754;2023-04-01T22:13:22;10.40;99.90
40600;DHT22;26309;50.924;4.754;2023-04-01T22:18:34;10.30;99.90
40600;DHT22;26309;50.924;4.754;2023-04-01T22:24:03;10.40;99.90
40600;DHT22;26309;50.924;4.754;2023-04-01T22:32:03;10.30;99.90
40600;DHT22;26309;50.924;4.754;2023-04-01T22:37:18;10.20;99.90
40600;DHT22;26309;50.924;4.754;2023-04-01T22:42:46;10.10;99.90
40600;DHT22;26309;50.924;4.754;2023-04-01T22:56:05;9.90;99.90
40600;DHT22;26309;50.924;4.754;2023-04-01T22:58:38;10.00;99.90
40600;DHT22;26309;50.924;4.754;2023-04-01T23:01:20;10.10;99.90
40600;DHT22;26309;50.924;4.754;2023-04-01T23:03:49;10.00;99.90
40600;DHT22;26309;50.924;4.754;2023-04-01T23:06:44;10.10;99.90
40600;DHT22;26309;50.924;4.754;2023-04-01T23:09:19;10.10;99.90
40600;DHT22;26309;50.924;4.754;2023-04-01T23:17:12;10.30;99.90
40600;DHT22;26309;50.924;4.754;2023-04-01T23:20:03;10.30;99.90
40600;DHT22;26309;50.924;4.754;2023-04-01T23:22:43;10.10;99.90
40600;DHT22;26309;50.924;4.754;2023-04-01T23:33:30;9.60;99.90
40600;DHT22;26309;50.924;4.754;2023-04-01T23:36:14;9.70;99.90
40600;DHT22;26309;50.924;4.754;2023-04-01T23:38:42;9.80;99.90
40600;DHT22;26309;50.924;4.754;2023-04-01T23:41:21;9.70;99.90
40600;DHT22;26309;50.924;4.754;2023-04-01T23:43:59;9.60;99.90
40600;DHT22;26309;50.924;4.754;2023-04-01T23:46:27;9.50;99.90
40600;DHT22;26309;50.924;4.754;2023-04-01T23:48:55;9.50;99.90
40600;DHT22;26309;50.924;4.754;2023-04-01T23:51:29;9.60;99.90
40600;DHT22;26309;50.924;4.754;2023-04-01T23:54:10;9.50;99.90
40600;DHT22;26309;50.924;4.754;2023-04-01T23:56:53;9.70;99.90
40600;DHT22;26309;50.924;4.754;2023-04-01T23:59:27;9.70;99.90
